sensor_id;sensor_type;location;lat;lon;timestamp;pressure;altitude;pressure_sealevel;temperature;humidity
77279;BME280;66332;50.436;15.378;2023-04-24T04:01:53;97111.00;;;10.11;86.35
77279;BME280;66332;50.436;15.378;2023-04-24T04:06:34;97125.97;;;10.18;85.92
77279;BME280;66332;50.436;15.378;2023-04-24T04:11:16;97138.06;;;10.19;85.40
77279;BME280;66332;50.436;15.378;2023-04-24T04:15:57;97133.84;;;10.04;86.24
77279;BME280;66332;50.436;15.378;2023-04-24T04:20:38;97136.69;;;9.96;86.90
77279;BME280;66332;50.436;15.378;2023-04-24T04:25:19;97138.50;;;9.89;87.12
77279;BME280;66332;50.436;15.378;2023-04-24T04:30:01;97144.97;;;10.20;86.50
77279;BME280;66332;50.436;15.378;2023-04-24T04:34:45;97140.72;;;10.12;87.12
77279;BME280;66332;50.436;15.378;2023-04-24T04:39:26;97146.19;;;10.10;87.32
77279;BME280;66332;50.436;15.378;2023-04-24T04:44:08;97144.53;;;10.16;86.85
77279;BME280;66332;50.436;15.378;2023-04-24T04:48:50;97143.50;;;10.44;86.70
77279;BME280;66332;50.436;15.378;2023-04-24T04:53:31;97142.53;;;10.38;87.08
77279;BME280;66332;50.436;15.378;2023-04-24T04:58:12;97149.97;;;10.54;86.51
77279;BME280;66332;50.436;15.378;2023-04-24T05:02:53;97151.53;;;10.75;85.79
77279;BME280;66332;50.436;15.378;2023-04-24T05:07:33;97153.13;;;10.90;85.06
77279;BME280;66332;50.436;15.378;2023-04-24T05:12:14;97163.66;;;10.90;85.47
77279;BME280;66332;50.436;15.378;2023-04-24T05:16:55;97154.94;;;10.96;85.39
77279;BME280;66332;50.436;15.378;2023-04-24T05:21:36;97162.19;;;11.00;84.27
77279;BME280;66332;50.436;15.378;2023-04-24T05:26:17;97166.16;;;11.16;83.94
77279;BME280;66332;50.436;15.378;2023-04-24T05:30:58;97167.09;;;11.35;84.08
77279;BME280;66332;50.436;15.378;2023-04-24T05:35:40;97160.69;;;11.56;83.06
77279;BME280;66332;50.436;15.378;2023-04-24T05:40:26;97166.25;;;11.35;84.59
77279;BME280;66332;50.436;15.378;2023-04-24T05:45:07;97176.59;;;11.36;83.84
77279;BME280;66332;50.436;15.378;2023-04-24T05:49:48;97186.13;;;11.31;85.17
77279;BME280;66332;50.436;15.378;2023-04-24T05:54:29;97185.44;;;11.48;84.36
77279;BME280;66332;50.436;15.378;2023-04-24T05:59:10;97184.25;;;11.44;83.81
77279;BME280;66332;50.436;15.378;2023-04-24T06:03:51;97183.84;;;11.47;84.47
77279;BME280;66332;50.436;15.378;2023-04-24T06:08:31;97190.06;;;11.53;83.12
77279;BME280;66332;50.436;15.378;2023-04-24T06:13:13;97185.97;;;11.64;83.24
77279;BME280;66332;50.436;15.378;2023-04-24T06:17:54;97182.81;;;11.87;82.64
77279;BME280;66332;50.436;15.378;2023-04-24T06:22:34;97165.28;;;11.67;82.43
77279;BME280;66332;50.436;15.378;2023-04-24T06:27:15;97185.88;;;11.45;82.45
77279;BME280;66332;50.436;15.378;2023-04-24T06:31:56;97170.75;;;11.28;83.17
77279;BME280;66332;50.436;15.378;2023-04-24T06:36:37;97186.28;;;11.42;82.40
77279;BME280;66332;50.436;15.378;2023-04-24T06:41:18;97176.78;;;11.41;82.53
77279;BME280;66332;50.436;15.378;2023-04-24T06:45:59;97180.13;;;11.55;82.61
77279;BME280;66332;50.436;15.378;2023-04-24T06:50:40;97164.81;;;11.77;81.29
77279;BME280;66332;50.436;15.378;2023-04-24T06:55:21;97164.81;;;11.77;81.65
77279;BME280;66332;50.436;15.378;2023-04-24T07:00:04;97192.75;;;11.85;80.79
77279;BME280;66332;50.436;15.378;2023-04-24T07:04:45;97186.91;;;11.76;80.37
77279;BME280;66332;50.436;15.378;2023-04-24T07:09:27;97191.53;;;11.81;79.42
77279;BME280;66332;50.436;15.378;2023-04-24T07:14:08;97188.38;;;11.65;80.12
77279;BME280;66332;50.436;15.378;2023-04-24T07:18:49;97192.41;;;11.68;80.29
77279;BME280;66332;50.436;15.378;2023-04-24T07:23:30;97196.06;;;11.67;79.85
77279;BME280;66332;50.436;15.378;2023-04-24T07:28:12;97202.38;;;11.66;79.75
77279;BME280;66332;50.436;15.378;2023-04-24T07:32:55;97197.00;;;11.86;78.75
77279;BME280;66332;50.436;15.378;2023-04-24T07:37:36;97201.53;;;11.65;79.58
77279;BME280;66332;50.436;15.378;2023-04-24T07:42:17;97214.44;;;11.87;78.00
77279;BME280;66332;50.436;15.378;2023-04-24T07:46:58;97207.97;;;11.76;78.50
77279;BME280;66332;50.436;15.378;2023-04-24T07:51:40;97220.94;;;11.71;78.39
77279;BME280;66332;50.436;15.378;2023-04-24T07:56:21;97213.84;;;11.71;78.87
77279;BME280;66332;50.436;15.378;2023-04-24T08:01:01;97211.81;;;11.87;78.98
77279;BME280;66332;50.436;15.378;2023-04-24T08:05:42;97209.16;;;11.87;79.00
77279;BME280;66332;50.436;15.378;2023-04-24T08:10:24;97211.56;;;11.88;78.71
77279;BME280;66332;50.436;15.378;2023-04-24T08:15:06;97212.19;;;11.90;78.75
77279;BME280;66332;50.436;15.378;2023-04-24T08:19:47;97218.84;;;11.93;78.81
77279;BME280;66332;50.436;15.378;2023-04-24T08:24:28;97219.44;;;11.95;79.21
77279;BME280;66332;50.436;15.378;2023-04-24T08:29:10;97206.19;;;12.08;78.39
77279;BME280;66332;50.436;15.378;2023-04-24T08:33:51;97209.63;;;12.09;79.01
77279;BME280;66332;50.436;15.378;2023-04-24T08:38:35;97210.19;;;12.11;79.27
77279;BME280;66332;50.436;15.378;2023-04-24T08:43:16;97213.53;;;12.25;78.46
77279;BME280;66332;50.436;15.378;2023-04-24T08:47:58;97210.19;;;12.11;78.71
77279;BME280;66332;50.436;15.378;2023-04-24T08:52:42;97216.56;;;12.28;79.00
77279;BME280;66332;50.436;15.378;2023-04-24T08:57:24;97219.50;;;12.38;78.06
77279;BME280;66332;50.436;15.378;2023-04-24T09:02:06;97216.56;;;12.28;79.36
77279;BME280;66332;50.436;15.378;2023-04-24T09:06:52;97201.22;;;12.19;78.76
77279;BME280;66332;50.436;15.378;2023-04-24T09:11:36;97214.03;;;12.15;80.31
77279;BME280;66332;50.436;15.378;2023-04-24T09:16:17;97215.53;;;12.29;79.32
77279;BME280;66332;50.436;15.378;2023-04-24T09:21:08;97224.84;;;12.57;78.67
77279;BME280;66332;50.436;15.378;2023-04-24T09:25:54;97223.66;;;12.53;77.77
77279;BME280;66332;50.436;15.378;2023-04-24T09:30:36;97225.25;;;12.29;78.60
77279;BME280;66332;50.436;15.378;2023-04-24T09:35:17;97225.28;;;12.54;77.47
77279;BME280;66332;50.436;15.378;2023-04-24T09:45:09;97222.44;;;12.74;74.89
77279;BME280;66332;50.436;15.378;2023-04-24T09:49:57;97226.97;;;12.67;76.18
77279;BME280;66332;50.436;15.378;2023-04-24T09:54:39;97228.69;;;12.79;74.33
77279;BME280;66332;50.436;15.378;2023-04-24T09:59:20;97223.03;;;12.76;75.44
77279;BME280;66332;50.436;15.378;2023-04-24T10:04:01;97221.81;;;12.97;73.64
77279;BME280;66332;50.436;15.378;2023-04-24T10:08:42;97225.69;;;12.76;72.35
77279;BME280;66332;50.436;15.378;2023-04-24T10:13:23;97225.75;;;12.69;73.17
77279;BME280;66332;50.436;15.378;2023-04-24T10:18:05;97220.97;;;12.78;74.80
77279;BME280;66332;50.436;15.378;2023-04-24T10:22:49;97228.06;;;12.59;76.43
77279;BME280;66332;50.436;15.378;2023-04-24T10:27:31;97226.28;;;12.53;77.70
77279;BME280;66332;50.436;15.378;2023-04-24T10:32:12;97217.25;;;12.42;76.36
77279;BME280;66332;50.436;15.378;2023-04-24T10:36:53;97229.03;;;12.39;77.49
77279;BME280;66332;50.436;15.378;2023-04-24T10:41:37;97214.34;;;12.25;77.05
77279;BME280;66332;50.436;15.378;2023-04-24T10:46:21;97236.28;;;12.44;76.64
77279;BME280;66332;50.436;15.378;2023-04-24T10:51:02;97243.78;;;12.47;76.25
77279;BME280;66332;50.436;15.378;2023-04-24T10:55:46;97236.47;;;12.49;74.42
77279;BME280;66332;50.436;15.378;2023-04-24T11:00:27;97225.72;;;12.51;73.04
77279;BME280;66332;50.436;15.378;2023-04-24T11:05:08;97240.00;;;12.61;73.45
77279;BME280;66332;50.436;15.378;2023-04-24T11:09:58;97238.28;;;12.92;71.47
77279;BME280;66332;50.436;15.378;2023-04-24T11:19:39;97233.44;;;12.89;70.12
77279;BME280;66332;50.436;15.378;2023-04-24T11:34:32;97244.91;;;13.20;67.33
77279;BME280;66332;50.436;15.378;2023-04-24T11:39:14;97244.25;;;13.24;68.22
77279;BME280;66332;50.436;15.378;2023-04-24T11:43:56;97241.13;;;13.34;66.16
77279;BME280;66332;50.436;15.378;2023-04-24T11:48:36;97246.09;;;13.24;66.67
77279;BME280;66332;50.436;15.378;2023-04-24T11:53:20;97234.94;;;13.40;66.78
77279;BME280;66332;50.436;15.378;2023-04-24T11:58:02;97232.06;;;13.42;68.20
77279;BME280;66332;50.436;15.378;2023-04-24T12:02:43;97231.31;;;13.71;68.15
77279;BME280;66332;50.436;15.378;2023-04-24T12:07:24;97226.50;;;13.50;68.84
77279;BME280;66332;50.436;15.378;2023-04-24T12:12:06;97227.13;;;13.34;70.40
77279;BME280;66332;50.436;15.378;2023-04-24T12:16:48;97220.22;;;13.63;68.97
77279;BME280;66332;50.436;15.378;2023-04-24T12:21:29;97221.38;;;13.85;68.49
77279;BME280;66332;50.436;15.378;2023-04-24T12:26:12;97226.56;;;13.62;68.01
77279;BME280;66332;50.436;15.378;2023-04-24T12:30:53;97216.34;;;13.65;68.91
77279;BME280;66332;50.436;15.378;2023-04-24T12:35:33;97214.69;;;13.83;65.99
77279;BME280;66332;50.436;15.378;2023-04-24T12:40:17;97214.09;;;13.81;66.00
77279;BME280;66332;50.436;15.378;2023-04-24T12:45:05;97204.06;;;14.01;65.12
77279;BME280;66332;50.436;15.378;2023-04-24T12:49:46;97185.81;;;14.23;63.68
77279;BME280;66332;50.436;15.378;2023-04-24T12:54:32;97197.56;;;14.51;61.33
77279;BME280;66332;50.436;15.378;2023-04-24T12:59:13;97194.44;;;14.42;60.75
77279;BME280;66332;50.436;15.378;2023-04-24T13:03:54;97201.97;;;14.68;60.94
77279;BME280;66332;50.436;15.378;2023-04-24T13:08:35;97198.19;;;14.64;60.67
77279;BME280;66332;50.436;15.378;2023-04-24T13:13:15;97191.97;;;14.59;61.42
77279;BME280;66332;50.436;15.378;2023-04-24T13:17:56;97181.34;;;14.47;61.15
77279;BME280;66332;50.436;15.378;2023-04-24T13:22:37;97187.50;;;14.06;63.48
77279;BME280;66332;50.436;15.378;2023-04-24T13:27:18;97167.53;;;14.45;62.29
77279;BME280;66332;50.436;15.378;2023-04-24T13:31:59;97163.41;;;14.49;62.46
77279;BME280;66332;50.436;15.378;2023-04-24T13:36:40;97153.41;;;14.86;63.20
77279;BME280;66332;50.436;15.378;2023-04-24T13:41:21;97157.25;;;15.19;60.11
77279;BME280;66332;50.436;15.378;2023-04-24T13:46:03;97150.72;;;15.67;58.76
77279;BME280;66332;50.436;15.378;2023-04-24T13:50:44;97144.25;;;15.63;59.51
77279;BME280;66332;50.436;15.378;2023-04-24T13:55:24;97128.81;;;15.43;60.52
77279;BME280;66332;50.436;15.378;2023-04-24T14:00:06;97136.19;;;15.12;60.84
77279;BME280;66332;50.436;15.378;2023-04-24T14:04:50;97138.00;;;14.60;61.66
77279;BME280;66332;50.436;15.378;2023-04-24T14:09:32;97128.69;;;14.45;62.49
77279;BME280;66332;50.436;15.378;2023-04-24T14:14:13;97129.38;;;14.29;63.07
77279;BME280;66332;50.436;15.378;2023-04-24T14:18:54;97139.84;;;14.36;65.31
77279;BME280;66332;50.436;15.378;2023-04-24T14:23:35;97140.91;;;14.70;65.04
77279;BME280;66332;50.436;15.378;2023-04-24T14:28:17;97143.53;;;14.58;65.98
77279;BME280;66332;50.436;15.378;2023-04-24T14:32:58;97135.22;;;14.66;63.27
77279;BME280;66332;50.436;15.378;2023-04-24T14:37:39;97140.00;;;13.87;62.93
77279;BME280;66332;50.436;15.378;2023-04-24T14:42:21;97141.34;;;13.66;63.16
77279;BME280;66332;50.436;15.378;2023-04-24T14:47:03;97143.63;;;13.32;66.53
77279;BME280;66332;50.436;15.378;2023-04-24T14:51:43;97157.97;;;12.70;70.17
77279;BME280;66332;50.436;15.378;2023-04-24T14:56:24;97154.97;;;12.66;72.24
77279;BME280;66332;50.436;15.378;2023-04-24T15:01:05;97154.69;;;12.31;73.97
77279;BME280;66332;50.436;15.378;2023-04-24T15:05:46;97151.16;;;12.19;75.97
77279;BME280;66332;50.436;15.378;2023-04-24T15:10:27;97166.28;;;12.30;76.54
77279;BME280;66332;50.436;15.378;2023-04-24T15:15:09;97160.56;;;12.08;79.95
77279;BME280;66332;50.436;15.378;2023-04-24T15:19:50;97162.75;;;12.11;79.05
77279;BME280;66332;50.436;15.378;2023-04-24T15:24:31;97154.38;;;11.96;79.92
77279;BME280;66332;50.436;15.378;2023-04-24T15:29:12;97156.81;;;11.97;79.40
77279;BME280;66332;50.436;15.378;2023-04-24T15:33:53;97156.75;;;12.04;81.76
77279;BME280;66332;50.436;15.378;2023-04-24T15:38:35;97151.97;;;12.19;78.22
77279;BME280;66332;50.436;15.378;2023-04-24T15:43:16;97156.63;;;11.92;77.69
77279;BME280;66332;50.436;15.378;2023-04-24T15:47:56;97160.97;;;12.05;78.99
77279;BME280;66332;50.436;15.378;2023-04-24T15:52:37;97158.69;;;11.83;79.11
77279;BME280;66332;50.436;15.378;2023-04-24T15:57:18;97158.13;;;11.75;80.23
77279;BME280;66332;50.436;15.378;2023-04-24T16:01:59;97179.19;;;11.81;81.97
77279;BME280;66332;50.436;15.378;2023-04-24T16:06:40;97177.56;;;12.12;78.69
77279;BME280;66332;50.436;15.378;2023-04-24T16:11:21;97184.19;;;12.21;81.59
77279;BME280;66332;50.436;15.378;2023-04-24T16:16:02;97175.34;;;12.09;79.42
77279;BME280;66332;50.436;15.378;2023-04-24T16:20:45;97176.91;;;12.16;77.45
77279;BME280;66332;50.436;15.378;2023-04-24T16:25:26;97183.41;;;12.14;78.93
77279;BME280;66332;50.436;15.378;2023-04-24T16:30:08;97176.41;;;12.26;78.42
77279;BME280;66332;50.436;15.378;2023-04-24T16:34:49;97167.50;;;12.27;78.74
77279;BME280;66332;50.436;15.378;2023-04-24T16:39:30;97174.31;;;12.35;78.76
77279;BME280;66332;50.436;15.378;2023-04-24T16:44:11;97177.72;;;12.42;79.15
77279;BME280;66332;50.436;15.378;2023-04-24T16:48:53;97171.94;;;12.52;78.25
77279;BME280;66332;50.436;15.378;2023-04-24T16:53:34;97175.09;;;12.60;80.04
77279;BME280;66332;50.436;15.378;2023-04-24T16:58:15;97174.75;;;12.75;78.42
77279;BME280;66332;50.436;15.378;2023-04-24T17:02:56;97173.81;;;12.70;80.04
77279;BME280;66332;50.436;15.378;2023-04-24T17:07:37;97179.59;;;12.97;80.55
77279;BME280;66332;50.436;15.378;2023-04-24T17:12:18;97189.47;;;13.01;79.67
77279;BME280;66332;50.436;15.378;2023-04-24T17:16:59;97183.84;;;12.79;77.55
77279;BME280;66332;50.436;15.378;2023-04-24T17:21:40;97188.75;;;12.76;70.20
77279;BME280;66332;50.436;15.378;2023-04-24T17:26:21;97192.00;;;12.53;59.23
77279;BME280;66332;50.436;15.378;2023-04-24T17:31:04;97196.16;;;12.42;58.74
77279;BME280;66332;50.436;15.378;2023-04-24T17:35:47;97203.53;;;12.33;58.46
77279;BME280;66332;50.436;15.378;2023-04-24T17:40:30;97210.97;;;12.18;58.13
77279;BME280;66332;50.436;15.378;2023-04-24T17:45:14;97216.28;;;12.11;58.59
77279;BME280;66332;50.436;15.378;2023-04-24T17:49:58;97221.16;;;12.08;59.40
77279;BME280;66332;50.436;15.378;2023-04-24T17:54:39;97209.25;;;11.99;59.30
77279;BME280;66332;50.436;15.378;2023-04-24T17:59:21;97223.38;;;12.11;58.67
77279;BME280;66332;50.436;15.378;2023-04-24T18:04:08;97226.84;;;12.11;59.68
77279;BME280;66332;50.436;15.378;2023-04-24T18:08:49;97237.81;;;12.02;60.54
77279;BME280;66332;50.436;15.378;2023-04-24T18:13:30;97238.66;;;11.96;59.49
77279;BME280;66332;50.436;15.378;2023-04-24T18:18:11;97246.31;;;12.04;60.76
77279;BME280;66332;50.436;15.378;2023-04-24T18:22:54;97252.94;;;11.81;61.89
77279;BME280;66332;50.436;15.378;2023-04-24T18:27:36;97258.78;;;11.90;61.20
77279;BME280;66332;50.436;15.378;2023-04-24T18:32:17;97263.66;;;11.86;61.58
77279;BME280;66332;50.436;15.378;2023-04-24T18:36:57;97278.66;;;11.79;61.27
77279;BME280;66332;50.436;15.378;2023-04-24T18:41:38;97279.03;;;11.83;61.37
77279;BME280;66332;50.436;15.378;2023-04-24T18:46:19;97278.09;;;11.70;61.78
77279;BME280;66332;50.436;15.378;2023-04-24T18:51:00;97290.47;;;11.63;62.05
77279;BME280;66332;50.436;15.378;2023-04-24T18:55:41;97287.69;;;11.52;62.32
77279;BME280;66332;50.436;15.378;2023-04-24T19:00:22;97294.81;;;11.44;61.63
77279;BME280;66332;50.436;15.378;2023-04-24T19:05:03;97303.31;;;11.40;61.92
77279;BME280;66332;50.436;15.378;2023-04-24T19:09:44;97309.81;;;11.31;62.57
77279;BME280;66332;50.436;15.378;2023-04-24T19:14:26;97298.13;;;11.20;61.77
77279;BME280;66332;50.436;15.378;2023-04-24T19:19:07;97308.63;;;11.13;63.21
77279;BME280;66332;50.436;15.378;2023-04-24T19:23:48;97314.09;;;11.18;63.20
77279;BME280;66332;50.436;15.378;2023-04-24T19:28:32;97324.03;;;11.10;62.00
77279;BME280;66332;50.436;15.378;2023-04-24T19:33:13;97304.41;;;10.92;62.28
77279;BME280;66332;50.436;15.378;2023-04-24T19:37:54;97328.50;;;11.02;62.16
77279;BME280;66332;50.436;15.378;2023-04-24T19:42:36;97329.13;;;10.91;62.51
77279;BME280;66332;50.436;15.378;2023-04-24T19:47:17;97339.22;;;11.01;62.89
77279;BME280;66332;50.436;15.378;2023-04-24T19:51:57;97344.09;;;10.77;63.99
77279;BME280;66332;50.436;15.378;2023-04-24T19:56:38;97339.44;;;10.73;64.00
77279;BME280;66332;50.436;15.378;2023-04-24T20:01:19;97341.03;;;10.61;63.72
77279;BME280;66332;50.436;15.378;2023-04-24T20:06:00;97341.25;;;10.66;62.76
77279;BME280;66332;50.436;15.378;2023-04-24T20:10:41;97351.16;;;10.64;63.27
77279;BME280;66332;50.436;15.378;2023-04-24T20:15:23;97345.09;;;10.63;63.46
77279;BME280;66332;50.436;15.378;2023-04-24T20:20:05;97339.03;;;10.56;64.01
77279;BME280;66332;50.436;15.378;2023-04-24T20:24:46;97343.06;;;10.52;63.92
77279;BME280;66332;50.436;15.378;2023-04-24T20:29:27;97362.03;;;10.41;64.23
77279;BME280;66332;50.436;15.378;2023-04-24T20:34:08;97369.31;;;10.32;64.74
77279;BME280;66332;50.436;15.378;2023-04-24T20:38:49;97362.25;;;10.32;64.17
77279;BME280;66332;50.436;15.378;2023-04-24T20:43:31;97358.59;;;10.27;64.55
77279;BME280;66332;50.436;15.378;2023-04-24T20:48:12;97370.91;;;10.26;64.58
77279;BME280;66332;50.436;15.378;2023-04-24T20:52:52;97364.22;;;10.24;65.29
77279;BME280;66332;50.436;15.378;2023-04-24T20:57:33;97367.81;;;10.16;64.36
77279;BME280;66332;50.436;15.378;2023-04-24T21:02:14;97364.78;;;10.13;64.55
77279;BME280;66332;50.436;15.378;2023-04-24T21:06:55;97368.81;;;10.08;65.78
77279;BME280;66332;50.436;15.378;2023-04-24T21:11:36;97381.31;;;10.06;65.63
77279;BME280;66332;50.436;15.378;2023-04-24T21:16:17;97382.34;;;10.05;65.97
77279;BME280;66332;50.436;15.378;2023-04-24T21:20:58;97382.91;;;10.01;65.49
77279;BME280;66332;50.436;15.378;2023-04-24T21:25:39;97374.84;;;9.96;66.68
77279;BME280;66332;50.436;15.378;2023-04-24T21:30:20;97380.13;;;10.09;66.04
77279;BME280;66332;50.436;15.378;2023-04-24T21:35:01;97394.97;;;9.88;67.06
77279;BME280;66332;50.436;15.378;2023-04-24T21:39:42;97391.94;;;9.85;67.60
77279;BME280;66332;50.436;15.378;2023-04-24T21:44:23;97387.09;;;9.88;67.41
77279;BME280;66332;50.436;15.378;2023-04-24T21:49:04;97394.34;;;9.80;66.71
77279;BME280;66332;50.436;15.378;2023-04-24T21:53:45;97394.88;;;9.62;67.28
77279;BME280;66332;50.436;15.378;2023-04-24T21:58:26;97385.72;;;9.51;68.02
77279;BME280;66332;50.436;15.378;2023-04-24T22:03:07;97394.09;;;9.68;67.95
77279;BME280;66332;50.436;15.378;2023-04-24T22:07:48;97399.16;;;9.76;66.98
77279;BME280;66332;50.436;15.378;2023-04-24T22:12:30;97396.66;;;9.61;67.73
77279;BME280;66332;50.436;15.378;2023-04-24T22:17:11;97404.16;;;9.64;67.21
77279;BME280;66332;50.436;15.378;2023-04-24T22:21:52;97402.53;;;9.63;68.06
77279;BME280;66332;50.436;15.378;2023-04-24T22:26:33;97400.50;;;9.59;67.46
77279;BME280;66332;50.436;15.378;2023-04-24T22:31:14;97401.34;;;9.66;67.20
77279;BME280;66332;50.436;15.378;2023-04-24T22:35:55;97408.59;;;9.64;66.62
77279;BME280;66332;50.436;15.378;2023-04-24T22:40:36;97406.63;;;9.73;67.29
77279;BME280;66332;50.436;15.378;2023-04-24T22:45:18;97402.16;;;9.67;65.66
77279;BME280;66332;50.436;15.378;2023-04-24T22:49:58;97402.91;;;9.54;63.67
77279;BME280;66332;50.436;15.378;2023-04-24T22:54:40;97409.56;;;9.56;63.85
77279;BME280;66332;50.436;15.378;2023-04-24T22:59:20;97403.03;;;9.46;63.19
77279;BME280;66332;50.436;15.378;2023-04-24T23:04:02;97405.84;;;9.37;63.56
77279;BME280;66332;50.436;15.378;2023-04-24T23:08:44;97410.44;;;9.35;64.38
77279;BME280;66332;50.436;15.378;2023-04-24T23:13:25;97404.28;;;9.22;63.18
77279;BME280;66332;50.436;15.378;2023-04-24T23:18:06;97410.41;;;9.29;63.92
77279;BME280;66332;50.436;15.378;2023-04-24T23:22:47;97402.59;;;9.35;63.34
77279;BME280;66332;50.436;15.378;2023-04-24T23:27:28;97399.13;;;9.28;63.70
77279;BME280;66332;50.436;15.378;2023-04-24T23:32:09;97411.41;;;9.28;64.87
77279;BME280;66332;50.436;15.378;2023-04-24T23:36:50;97409.75;;;9.20;65.27
77279;BME280;66332;50.436;15.378;2023-04-24T23:41:32;97410.28;;;9.15;65.52
77279;BME280;66332;50.436;15.378;2023-04-24T23:46:12;97407.13;;;9.20;64.74
77279;BME280;66332;50.436;15.378;2023-04-24T23:50:53;97416.38;;;9.16;64.46
77279;BME280;66332;50.436;15.378;2023-04-24T23:55:34;97414.88;;;9.07;65.87
